Weather at Aurora Valley View Medical Center Heliport

Public forecast

Using degrees Fahrenheit for public forecast. Weather courtesy of forecast.io.

Closest aviation weather report (METAR) to Aurora Valley View Medical Center Heliport

Closest report is Sheboygan County Memorial Airport, 5.3 nm (9.8 km) ENE. Retrieved 2021/06/23 01:53 UTC (36 minutes ago):

KSBM 230153Z AUTO 14006KT 10SM SCT080 16/10 A2995 RMK AO2 SLP141 T01610100

Closest aviation forecast (TAF) to Aurora Valley View Medical Center Heliport

Closest forecast is Sheboygan County Memorial Airport, 5.3 nm (9.8 km) ENE. Retrieved 2021-06-23 00:33 UTC (2 hours ago):

TAF KSBM 222330Z 2300/2324 VRB05KT P6SM SCT080 FM230500 15005KT P6SM FEW080 SCT150 FM231200 20007KT P6SM SCT025 BKN050 TEMPO 2313/2316 6SM -SHRA BKN025 FM231600 20011KT P6SM BKN025 FM231900 19012G20KT P6SM BKN040